createdAt,value
2022-11-14T00:01:02.259Z,76.83
2022-11-14T00:05:07.977Z,76.82
2022-11-14T00:10:08.537Z,76.83
2022-11-14T00:15:08.248Z,76.85
2022-11-14T00:20:07.943Z,76.86
2022-11-14T00:25:08.704Z,76.87
2022-11-14T00:30:08.420Z,76.88
2022-11-14T00:35:08.134Z,76.87
2022-11-14T00:40:07.868Z,76.88
2022-11-14T00:45:08.582Z,76.91
2022-11-14T00:50:08.293Z,76.9
2022-11-14T00:55:07.993Z,76.92
2022-11-14T01:00:07.637Z,76.92
2022-11-14T01:05:08.606Z,76.93
2022-11-14T01:10:08.289Z,76.94
2022-11-14T01:15:08.031Z,76.93
2022-11-14T01:20:07.746Z,76.95
2022-11-14T01:25:08.449Z,76.98
2022-11-14T01:30:08.187Z,76.96
2022-11-14T01:35:07.859Z,76.97
2022-11-14T01:40:08.549Z,77.0
2022-11-14T01:45:08.278Z,76.99
2022-11-14T01:50:08.016Z,76.99
2022-11-14T01:55:07.711Z,77.01
2022-11-14T02:00:08.402Z,76.98
2022-11-14T02:05:08.114Z,77.01
2022-11-14T02:10:07.800Z,77.0
2022-11-14T02:15:08.462Z,77.02
2022-11-14T02:20:08.252Z,77.02
2022-11-14T02:25:07.945Z,77.02
2022-11-14T02:30:07.658Z,77.03
2022-11-14T02:35:08.352Z,77.04
2022-11-14T02:40:08.057Z,77.06
2022-11-14T02:45:07.748Z,77.07
2022-11-14T02:50:08.430Z,77.05
2022-11-14T02:55:08.135Z,77.08
2022-11-14T03:00:13.531Z,77.08
2022-11-14T03:05:07.716Z,77.08
2022-11-14T03:10:08.441Z,77.07
2022-11-14T03:15:08.164Z,77.11
2022-11-14T03:20:07.871Z,77.12
2022-11-14T03:25:08.567Z,77.11
2022-11-14T03:30:08.270Z,77.12
2022-11-14T03:35:07.955Z,77.13
2022-11-14T03:40:07.662Z,77.12
2022-11-14T03:45:08.370Z,77.14
2022-11-14T03:50:08.085Z,77.12
2022-11-14T03:55:07.771Z,77.13
2022-11-14T04:00:08.463Z,77.13
2022-11-14T04:05:08.149Z,77.15
2022-11-14T04:10:07.901Z,77.16
2022-11-14T04:15:08.612Z,77.18
2022-11-14T04:20:08.346Z,77.17
2022-11-14T04:25:08.028Z,77.18
2022-11-14T04:30:07.745Z,77.17
2022-11-14T04:35:08.439Z,77.17
2022-11-14T04:40:08.146Z,77.19
2022-11-14T04:45:07.901Z,77.22
2022-11-14T04:50:08.640Z,77.18
2022-11-14T04:55:08.339Z,77.19
2022-11-14T05:00:08.059Z,77.21
2022-11-14T05:05:01.790Z,77.21
2022-11-14T05:10:02.544Z,77.2
2022-11-14T05:15:02.357Z,77.21
2022-11-14T05:20:02.241Z,77.22
2022-11-14T05:25:02.016Z,77.21
2022-11-14T05:30:01.863Z,77.23
2022-11-14T05:35:02.725Z,77.22
2022-11-14T05:40:02.563Z,77.24
2022-11-14T05:45:02.371Z,77.24
2022-11-14T05:50:02.221Z,77.21
2022-11-14T05:55:01.991Z,77.23
2022-11-14T06:00:01.786Z,77.23
2022-11-14T06:05:02.652Z,77.32
2022-11-14T06:10:02.418Z,77.31
2022-11-14T06:15:02.193Z,77.28
2022-11-14T06:20:02.093Z,77.26
2022-11-14T06:25:02.000Z,77.27
2022-11-14T06:30:01.888Z,77.25
2022-11-14T06:35:02.801Z,77.25
2022-11-14T06:40:02.864Z,77.26
2022-11-14T06:45:02.922Z,77.26
2022-11-14T06:50:02.908Z,77.26
2022-11-14T06:55:02.851Z,77.27
2022-11-14T07:00:02.756Z,77.28
2022-11-14T07:05:02.704Z,77.28
2022-11-14T07:10:02.836Z,77.26
2022-11-14T07:15:02.679Z,77.29
2022-11-14T07:20:02.486Z,77.29
2022-11-14T07:25:02.217Z,77.28
2022-11-14T07:30:02.035Z,77.31
2022-11-14T07:35:02.750Z,77.29
2022-11-14T07:40:01.807Z,77.29
2022-11-14T07:45:02.650Z,77.29
2022-11-14T07:50:02.483Z,77.29
2022-11-14T07:55:02.294Z,77.31
2022-11-14T08:00:02.179Z,77.33
2022-11-14T08:05:01.928Z,77.32
2022-11-14T08:10:02.724Z,77.31
2022-11-14T08:15:02.535Z,77.32
2022-11-14T08:20:02.382Z,77.32
2022-11-14T08:25:02.190Z,77.31
2022-11-14T08:30:02.133Z,77.31
2022-11-14T08:35:01.979Z,77.3
2022-11-14T08:40:01.893Z,77.3
2022-11-14T08:45:02.624Z,77.32
2022-11-14T08:50:02.576Z,77.32
2022-11-14T08:55:02.394Z,77.32
2022-11-14T09:00:02.229Z,77.3
2022-11-14T09:05:02.051Z,77.29
2022-11-14T09:10:01.896Z,77.28
2022-11-14T09:15:02.733Z,77.26
2022-11-14T09:20:02.707Z,77.23
2022-11-14T09:25:02.610Z,77.23
2022-11-14T09:30:02.532Z,77.2
2022-11-14T09:35:02.458Z,77.18
2022-11-14T09:40:02.398Z,77.17
2022-11-14T09:45:02.248Z,77.13
2022-11-14T09:50:02.252Z,77.1
2022-11-14T09:55:02.073Z,77.06
2022-11-14T10:00:01.914Z,77.05
2022-11-14T10:05:09.356Z,77.03
2022-11-14T10:10:02.181Z,76.96
2022-11-14T10:15:01.994Z,76.93
2022-11-14T10:20:01.825Z,76.89
2022-11-14T10:25:02.602Z,76.86
2022-11-14T10:30:12.475Z,76.84
2022-11-14T10:35:02.253Z,76.8
2022-11-14T10:40:02.071Z,76.77
2022-11-14T10:45:01.889Z,76.72
2022-11-14T10:50:02.762Z,76.68
2022-11-14T10:55:02.670Z,76.65
2022-11-14T11:00:02.530Z,76.62
2022-11-14T11:05:02.357Z,76.58
2022-11-14T11:10:02.137Z,76.54
2022-11-14T11:15:06.893Z,76.52
2022-11-14T11:20:12.722Z,76.48
2022-11-14T11:25:02.604Z,76.44
2022-11-14T11:30:02.469Z,76.4
2022-11-14T11:35:02.412Z,76.36
2022-11-14T11:40:02.235Z,76.32
2022-11-14T11:45:01.961Z,76.3
2022-11-14T11:50:01.823Z,76.28
2022-11-14T11:55:02.639Z,76.29
2022-11-14T12:00:02.606Z,76.26
2022-11-14T12:05:02.566Z,76.28
2022-11-14T12:10:10.291Z,76.28
2022-11-14T12:15:02.029Z,76.29
2022-11-14T12:20:01.972Z,76.31
2022-11-14T12:25:01.947Z,76.29
2022-11-14T12:30:01.892Z,76.31
2022-11-14T12:35:02.917Z,76.29
2022-11-14T12:40:01.832Z,76.3
2022-11-14T12:45:02.682Z,76.31
2022-11-14T12:50:02.480Z,76.31
2022-11-14T12:55:02.214Z,76.32
2022-11-14T13:00:01.978Z,76.32
2022-11-14T13:05:01.795Z,76.32
2022-11-14T13:10:02.662Z,76.32
2022-11-14T13:15:02.482Z,76.32
2022-11-14T13:20:02.298Z,76.32
2022-11-14T13:25:02.125Z,76.34
2022-11-14T13:30:01.861Z,76.34
2022-11-14T13:35:12.739Z,76.35
2022-11-14T13:40:02.520Z,76.36
2022-11-14T13:45:02.258Z,76.36
2022-11-14T13:50:02.221Z,76.35
2022-11-14T13:55:02.051Z,76.37
2022-11-14T14:00:01.838Z,76.35
2022-11-14T14:05:02.591Z,76.39
2022-11-14T14:10:02.429Z,76.37
2022-11-14T14:15:02.288Z,76.4
2022-11-14T14:20:02.057Z,76.41
2022-11-14T14:25:01.825Z,76.41
2022-11-14T14:30:12.632Z,76.42
2022-11-14T14:35:02.379Z,76.43
2022-11-14T14:40:02.537Z,76.41
2022-11-14T14:45:02.444Z,76.43
2022-11-14T14:50:02.400Z,76.45
2022-11-14T14:55:02.323Z,76.45
2022-11-14T15:00:02.426Z,76.48
2022-11-14T15:05:02.390Z,76.47
2022-11-14T15:10:02.220Z,76.45
2022-11-14T15:15:02.129Z,76.47
2022-11-14T15:20:01.941Z,76.51
2022-11-14T15:25:01.790Z,76.55
2022-11-14T15:30:02.642Z,76.5
2022-11-14T15:35:02.515Z,76.49
2022-11-14T15:40:02.290Z,76.48
2022-11-14T15:45:02.101Z,76.5
2022-11-14T15:50:01.938Z,76.52
2022-11-14T15:55:01.790Z,76.53
2022-11-14T16:00:02.649Z,76.54
2022-11-14T16:05:02.443Z,76.55
2022-11-14T16:10:02.386Z,76.56
2022-11-14T16:15:02.196Z,76.54
2022-11-14T16:20:02.017Z,76.55
2022-11-14T16:25:01.879Z,76.58
2022-11-14T16:30:02.765Z,76.58
2022-11-14T16:35:02.560Z,76.6
2022-11-14T16:40:02.375Z,76.61
2022-11-14T16:45:02.171Z,76.63
2022-11-14T16:50:02.086Z,76.63
2022-11-14T16:55:01.876Z,76.63
2022-11-14T17:00:02.637Z,76.66
2022-11-14T17:05:02.446Z,76.64
2022-11-14T17:10:02.498Z,76.66
2022-11-14T17:15:02.330Z,76.63
2022-11-14T17:20:02.113Z,76.66
2022-11-14T17:25:01.985Z,76.65
2022-11-14T17:30:01.896Z,76.66
2022-11-14T17:35:02.744Z,76.65
2022-11-14T17:40:02.777Z,76.65
2022-11-14T17:45:02.759Z,76.65
2022-11-14T17:50:02.662Z,76.67
2022-11-14T17:55:02.701Z,76.67
2022-11-14T18:00:02.517Z,76.68
2022-11-14T18:05:02.337Z,76.69
2022-11-14T18:10:02.187Z,76.69
2022-11-14T18:15:01.968Z,76.69
2022-11-14T18:20:01.833Z,76.7
2022-11-14T18:25:07.698Z,76.71
2022-11-14T18:30:19.799Z,76.7
2022-11-14T18:35:01.904Z,76.72
2022-11-14T18:40:02.766Z,76.72
2022-11-14T18:45:02.579Z,76.73
2022-11-14T18:50:02.314Z,76.71
2022-11-14T18:55:02.173Z,76.72
2022-11-14T19:00:02.007Z,76.73
2022-11-14T19:05:01.830Z,76.74
2022-11-14T19:10:02.667Z,76.74
2022-11-14T19:15:02.499Z,76.74
2022-11-14T19:20:02.324Z,76.74
2022-11-14T19:25:02.151Z,76.72
2022-11-14T19:30:01.946Z,76.75
2022-11-14T19:35:02.744Z,76.73
2022-11-14T19:40:02.704Z,76.74
2022-11-14T19:45:02.536Z,76.76
2022-11-14T19:50:02.295Z,76.75
2022-11-14T19:55:02.228Z,76.76
2022-11-14T20:00:02.111Z,76.74
2022-11-14T20:05:01.996Z,76.78
2022-11-14T20:10:02.045Z,76.79
2022-11-14T20:15:01.943Z,76.8
2022-11-14T20:20:01.898Z,76.84
2022-11-14T20:25:02.750Z,76.85
2022-11-14T20:30:02.717Z,76.85
2022-11-14T20:35:02.490Z,76.88
2022-11-14T20:40:02.437Z,76.87
2022-11-14T20:45:02.240Z,76.88
2022-11-14T20:50:02.110Z,76.91
2022-11-14T20:55:01.904Z,76.92
2022-11-14T21:00:03.562Z,76.91
2022-11-14T21:05:02.305Z,76.94
2022-11-14T21:10:02.111Z,76.95
2022-11-14T21:15:01.847Z,76.95
2022-11-14T21:20:02.809Z,76.98
2022-11-14T21:25:02.618Z,76.97
2022-11-14T21:30:02.500Z,77.01
2022-11-14T21:35:06.939Z,77.02
2022-11-14T21:40:02.224Z,77.04
2022-11-14T21:45:02.031Z,77.04
2022-11-14T21:50:01.873Z,77.04
2022-11-14T21:55:02.746Z,77.05
2022-11-14T22:00:02.535Z,77.06
2022-11-14T22:05:08.249Z,77.05
2022-11-14T22:10:07.958Z,77.05
2022-11-14T22:15:07.701Z,77.07
2022-11-14T22:20:08.428Z,77.07
2022-11-14T22:25:08.138Z,77.06
2022-11-14T22:30:07.908Z,77.05
2022-11-14T22:35:08.599Z,77.04
2022-11-14T22:40:08.381Z,77.04
2022-11-14T22:45:08.103Z,77.04
2022-11-14T22:50:07.799Z,77.02
2022-11-14T22:55:12.419Z,77.03
2022-11-14T23:00:08.020Z,77.03
2022-11-14T23:05:07.707Z,77.01
2022-11-14T23:10:08.407Z,77.0
2022-11-14T23:15:08.124Z,76.98
2022-11-14T23:20:12.246Z,76.96
2022-11-14T23:25:07.846Z,76.98
2022-11-14T23:30:08.579Z,76.97
2022-11-14T23:35:08.299Z,76.97
2022-11-14T23:40:08.038Z,76.96
2022-11-14T23:45:07.748Z,76.96
2022-11-14T23:50:08.452Z,76.96
2022-11-14T23:55:08.172Z,76.92
